createdAt,value
2018-10-21T00:00:22.967Z,11.37
2018-10-21T00:02:50.149Z,11.03
2018-10-21T00:05:17.309Z,11.40
2018-10-21T00:07:44.492Z,11.30
2018-10-21T00:10:11.726Z,10.30
2018-10-21T00:12:39.132Z,11.17
2018-10-21T00:15:06.795Z,10.77
2018-10-21T00:17:34.071Z,9.50
2018-10-21T00:20:01.241Z,10.90
2018-10-21T00:22:28.396Z,10.47
2018-10-21T00:24:55.635Z,11.00
2018-10-21T00:27:22.804Z,10.77
2018-10-21T00:29:49.957Z,11.47
2018-10-21T00:32:17.148Z,10.30
2018-10-21T00:34:44.345Z,9.63
2018-10-21T00:37:11.513Z,10.57
2018-10-21T00:39:38.666Z,10.83
2018-10-21T00:42:05.874Z,10.33
2018-10-21T00:44:33.180Z,10.10
2018-10-21T00:47:00.496Z,10.27
2018-10-21T00:49:27.638Z,10.07
2018-10-21T00:51:54.804Z,10.00
2018-10-21T00:54:21.968Z,10.67
2018-10-21T00:56:49.115Z,9.77
2018-10-21T00:59:16.269Z,10.13
2018-10-21T01:01:43.483Z,9.77
2018-10-21T01:04:10.762Z,9.23
2018-10-21T01:06:37.912Z,9.90
2018-10-21T01:09:07.931Z,10.10
2018-10-21T01:11:35.117Z,9.50
2018-10-21T01:14:02.291Z,10.07
2018-10-21T01:16:29.516Z,9.80
2018-10-21T01:18:56.676Z,10.13
2018-10-21T01:21:23.814Z,9.73
2018-10-21T01:23:50.968Z,10.13
2018-10-21T01:26:18.119Z,9.70
2018-10-21T01:28:45.285Z,9.53
2018-10-21T01:31:12.449Z,10.53
2018-10-21T01:33:39.590Z,9.87
2018-10-21T01:36:06.773Z,9.77
2018-10-21T01:38:33.925Z,9.70
2018-10-21T01:41:01.150Z,11.07
2018-10-21T01:43:29.593Z,9.50
2018-10-21T01:45:57.200Z,9.47
2018-10-21T01:48:25.525Z,8.90
2018-10-21T01:50:52.773Z,9.07
2018-10-21T01:53:20.541Z,9.53
2018-10-21T01:55:47.725Z,8.90
2018-10-21T01:58:14.889Z,9.33
2018-10-21T02:00:42.393Z,9.80
2018-10-21T02:03:09.671Z,9.30
2018-10-21T02:05:37.315Z,9.57
2018-10-21T02:08:04.824Z,9.43
2018-10-21T02:10:32.057Z,8.50
2018-10-21T02:12:59.212Z,9.53
2018-10-21T02:15:26.376Z,9.20
2018-10-21T02:17:53.526Z,9.37
2018-10-21T02:20:21.420Z,8.10
2018-10-21T02:22:48.984Z,8.80
2018-10-21T02:25:16.168Z,8.13
2018-10-21T02:27:44.314Z,8.67
2018-10-21T02:30:16.723Z,9.13
2018-10-21T02:32:44.765Z,8.67
2018-10-21T02:35:12.620Z,8.83
2018-10-21T02:37:40.077Z,8.57
2018-10-21T02:40:13.024Z,9.57
2018-10-21T02:42:40.192Z,9.03
2018-10-21T02:45:07.374Z,9.00
2018-10-21T02:47:34.553Z,9.00
2018-10-21T02:50:01.706Z,8.70
2018-10-21T02:52:28.878Z,9.47
2018-10-21T02:54:56.044Z,9.37
2018-10-21T02:57:23.213Z,8.00
2018-10-21T02:59:50.349Z,9.57
2018-10-21T03:02:17.540Z,8.10
2018-10-21T03:04:44.751Z,9.20
2018-10-21T03:07:11.901Z,9.00
2018-10-21T03:09:39.073Z,8.43
2018-10-21T03:12:06.253Z,8.87
2018-10-21T03:14:33.417Z,9.10
2018-10-21T03:17:00.604Z,9.00
2018-10-21T03:19:27.792Z,9.03
2018-10-21T03:21:54.960Z,8.20
2018-10-21T03:24:22.137Z,9.00
2018-10-21T03:26:49.349Z,8.57
2018-10-21T03:29:16.514Z,8.57
2018-10-21T03:31:43.701Z,8.77
2018-10-21T03:34:10.874Z,8.67
2018-10-21T03:36:38.043Z,8.70
2018-10-21T03:39:05.872Z,8.23
2018-10-21T03:41:33.045Z,8.97
2018-10-21T03:44:00.225Z,8.80
2018-10-21T03:46:27.413Z,8.03
2018-10-21T03:48:54.596Z,9.40
2018-10-21T03:51:21.780Z,8.60
2018-10-21T03:53:48.977Z,8.27
2018-10-21T03:56:16.136Z,8.67
2018-10-21T03:58:43.324Z,8.83
2018-10-21T04:01:11.521Z,8.10
2018-10-21T04:03:38.693Z,9.17
2018-10-21T04:06:05.878Z,8.57
2018-10-21T04:08:33.069Z,9.10
2018-10-21T04:11:00.260Z,8.80
2018-10-21T04:13:27.480Z,8.87
2018-10-21T04:15:54.705Z,9.93
2018-10-21T04:18:21.829Z,9.23
2018-10-21T04:20:49.005Z,9.13
2018-10-21T04:23:16.189Z,9.10
2018-10-21T04:25:43.387Z,9.57
2018-10-21T04:28:10.731Z,9.40
2018-10-21T04:30:39.912Z,9.00
2018-10-21T04:33:42.529Z,9.33
2018-10-21T04:36:10.970Z,8.83
2018-10-21T04:38:43.906Z,8.63
2018-10-21T04:41:11.133Z,8.10
2018-10-21T04:43:38.284Z,9.27
2018-10-21T04:46:05.450Z,9.63
2018-10-21T04:48:32.640Z,9.53
2018-10-21T04:50:59.798Z,9.43
2018-10-21T04:53:26.977Z,8.97
2018-10-21T04:55:54.150Z,9.40
2018-10-21T04:58:21.305Z,10.23
2018-10-21T05:00:48.487Z,10.60
2018-10-21T05:03:15.582Z,11.13
2018-10-21T05:05:42.736Z,10.07
2018-10-21T05:08:09.875Z,12.43
2018-10-21T05:10:38.116Z,12.70
2018-10-21T05:13:05.985Z,11.93
2018-10-21T05:15:34.506Z,11.50
2018-10-21T05:18:01.670Z,11.83
2018-10-21T05:20:28.860Z,13.03
2018-10-21T05:22:56.331Z,12.33
2018-10-21T05:25:23.680Z,12.00
2018-10-21T05:27:50.857Z,12.37
2018-10-21T05:30:18.013Z,11.87
2018-10-21T05:32:45.181Z,10.27
2018-10-21T05:35:13.602Z,11.80
2018-10-21T05:37:40.954Z,10.93
2018-10-21T05:40:10.231Z,11.80
2018-10-21T05:42:44.638Z,11.80
2018-10-21T05:45:11.870Z,12.10
2018-10-21T05:47:39.607Z,14.07
2018-10-21T05:50:07.374Z,13.47
2018-10-21T05:52:34.672Z,14.47
2018-10-21T05:55:01.854Z,13.43
2018-10-21T05:57:29.029Z,13.07
2018-10-21T05:59:56.244Z,13.63
2018-10-21T06:02:23.553Z,13.00
2018-10-21T06:04:51.053Z,13.13
2018-10-21T06:07:18.233Z,14.37
2018-10-21T06:09:45.412Z,13.37
2018-10-21T06:12:12.573Z,12.57
2018-10-21T06:14:39.708Z,13.93
2018-10-21T06:17:12.734Z,13.93
2018-10-21T06:19:44.725Z,14.70
2018-10-21T06:22:12.113Z,12.80
2018-10-21T06:24:39.208Z,12.73
2018-10-21T06:27:06.377Z,13.37
2018-10-21T06:29:33.540Z,13.40
2018-10-21T06:32:00.749Z,13.13
2018-10-21T06:34:27.902Z,13.90
2018-10-21T06:36:55.076Z,14.00
2018-10-21T06:39:22.212Z,12.47
2018-10-21T06:41:49.405Z,12.23
2018-10-21T06:44:16.572Z,11.40
2018-10-21T06:46:43.711Z,11.20
2018-10-21T06:49:10.931Z,11.27
2018-10-21T06:51:38.037Z,11.17
2018-10-21T06:54:05.315Z,13.67
2018-10-21T06:56:32.737Z,16.30
2018-10-21T06:58:59.713Z,12.50
2018-10-21T07:01:27.164Z,12.93
2018-10-21T07:03:54.375Z,11.80
2018-10-21T07:06:23.624Z,14.10
2018-10-21T07:08:52.001Z,14.10
2018-10-21T07:11:19.185Z,13.53
2018-10-21T07:13:46.358Z,12.70
2018-10-21T07:16:13.769Z,13.93
2018-10-21T07:18:41.485Z,13.47
2018-10-21T07:21:08.709Z,15.63
2018-10-21T07:23:36.026Z,15.67
2018-10-21T07:26:03.479Z,13.00
2018-10-21T07:28:30.673Z,13.97
2018-10-21T07:30:58.177Z,12.30
2018-10-21T07:33:25.384Z,12.63
2018-10-21T07:35:52.694Z,12.30
2018-10-21T07:38:19.933Z,12.10
2018-10-21T07:40:47.130Z,11.47
2018-10-21T07:43:14.288Z,12.10
2018-10-21T07:45:41.453Z,11.00
2018-10-21T07:48:08.633Z,12.03
2018-10-21T07:50:35.809Z,10.67
2018-10-21T07:53:02.988Z,10.80
2018-10-21T07:55:30.542Z,11.03
2018-10-21T07:57:57.705Z,11.43
2018-10-21T08:00:24.892Z,11.10
2018-10-21T08:02:52.481Z,10.03
2018-10-21T08:05:31.381Z,10.73
2018-10-21T08:08:13.310Z,10.43
2018-10-21T08:10:40.697Z,10.50
2018-10-21T08:13:09.100Z,10.77
2018-10-21T08:15:36.304Z,9.67
2018-10-21T08:18:03.581Z,10.70
2018-10-21T08:20:31.064Z,11.00
2018-10-21T08:22:58.289Z,10.03
2018-10-21T08:25:25.504Z,9.97
2018-10-21T08:27:52.702Z,10.60
2018-10-21T08:30:20.337Z,10.40
2018-10-21T08:32:47.500Z,10.53
2018-10-21T08:35:14.696Z,11.07
2018-10-21T08:37:42.106Z,11.40
2018-10-21T08:40:09.300Z,11.03
2018-10-21T08:42:36.476Z,10.47
2018-10-21T08:45:03.893Z,10.33
2018-10-21T08:47:31.100Z,10.53
2018-10-21T08:49:58.279Z,10.30
2018-10-21T08:52:25.436Z,10.57
2018-10-21T08:54:52.580Z,10.57
2018-10-21T08:57:19.739Z,10.30
2018-10-21T08:59:46.910Z,10.37
2018-10-21T09:02:14.183Z,9.97
2018-10-21T09:04:41.237Z,10.10
2018-10-21T09:07:08.467Z,10.23
2018-10-21T09:09:35.585Z,10.67
2018-10-21T09:12:02.849Z,11.53
2018-10-21T09:14:30.032Z,11.10
2018-10-21T09:16:57.209Z,11.23
2018-10-21T09:19:24.381Z,12.00
2018-10-21T09:21:51.577Z,11.60
2018-10-21T09:24:18.892Z,12.40
2018-10-21T09:26:46.090Z,13.03
2018-10-21T09:29:13.258Z,13.40
2018-10-21T09:31:40.453Z,12.63
2018-10-21T09:34:07.708Z,13.53
2018-10-21T09:36:34.813Z,13.00
2018-10-21T09:39:02.011Z,14.70
2018-10-21T09:41:29.197Z,12.55
2018-10-21T09:43:56.516Z,12.45
2018-10-21T09:46:23.740Z,12.50
2018-10-21T09:48:51.115Z,14.18
2018-10-21T09:51:18.310Z,13.90
2018-10-21T09:53:45.501Z,14.07
2018-10-21T09:56:12.685Z,13.93
2018-10-21T09:58:39.923Z,14.25
2018-10-21T10:01:12.939Z,13.70
2018-10-21T10:03:40.062Z,14.38
2018-10-21T10:06:07.208Z,13.53
2018-10-21T10:08:34.385Z,14.20
2018-10-21T10:11:01.577Z,12.50
2018-10-21T10:13:28.787Z,12.30
2018-10-21T10:15:56.002Z,13.43
2018-10-21T10:18:23.191Z,12.45
2018-10-21T10:20:50.374Z,14.03
2018-10-21T10:23:17.643Z,13.08
2018-10-21T10:25:44.749Z,12.03
2018-10-21T10:28:11.993Z,12.75
2018-10-21T10:30:39.221Z,12.73
2018-10-21T10:33:06.325Z,12.23
2018-10-21T10:35:33.618Z,12.50
2018-10-21T10:38:00.782Z,11.95
2018-10-21T10:40:27.957Z,12.68
2018-10-21T10:42:55.188Z,13.10
2018-10-21T10:45:22.342Z,12.53
2018-10-21T10:47:49.520Z,11.75
2018-10-21T10:50:16.738Z,12.07
2018-10-21T10:52:43.915Z,11.63
2018-10-21T10:55:11.179Z,10.13
2018-10-21T10:57:38.308Z,11.50
2018-10-21T11:00:06.944Z,10.13
2018-10-21T11:02:33.928Z,11.05
2018-10-21T11:05:01.097Z,9.65
2018-10-21T11:07:28.275Z,9.65
2018-10-21T11:09:55.539Z,9.98
2018-10-21T11:12:22.781Z,8.85
2018-10-21T11:14:49.972Z,9.75
2018-10-21T11:17:17.145Z,9.58
2018-10-21T11:19:44.337Z,8.85
2018-10-21T11:22:11.596Z,8.58
2018-10-21T11:24:45.392Z,8.10
2018-10-21T11:27:12.686Z,8.53
2018-10-21T11:29:39.961Z,7.58
2018-10-21T11:32:07.137Z,7.55
2018-10-21T11:34:34.313Z,7.75
2018-10-21T11:37:02.473Z,7.08
2018-10-21T11:39:29.569Z,6.83
2018-10-21T11:41:56.760Z,6.25
2018-10-21T11:44:23.946Z,5.87
2018-10-21T11:46:51.285Z,5.90
2018-10-21T11:49:18.457Z,4.45
2018-10-21T11:51:45.602Z,5.50
2018-10-21T11:54:12.766Z,5.90
2018-10-21T11:56:39.933Z,4.95
2018-10-21T11:59:07.925Z,4.90
2018-10-21T12:01:35.576Z,5.37
2018-10-21T12:04:02.861Z,4.75
2018-10-21T12:06:29.971Z,4.35
2018-10-21T12:08:57.208Z,8.15
2018-10-21T12:11:24.377Z,7.58
2018-10-21T12:13:51.544Z,8.33
2018-10-21T12:16:18.806Z,7.85
2018-10-21T12:18:45.874Z,7.28
2018-10-21T12:21:13.035Z,7.50
2018-10-21T12:23:40.189Z,7.00
2018-10-21T12:26:07.388Z,6.65
2018-10-21T12:28:34.554Z,7.30
2018-10-21T12:31:01.734Z,6.78
2018-10-21T12:33:31.241Z,6.58
2018-10-21T12:35:58.421Z,6.12
2018-10-21T12:38:25.598Z,6.35
2018-10-21T12:40:53.616Z,6.35
2018-10-21T12:43:20.876Z,6.03
2018-10-21T12:45:48.067Z,6.03
2018-10-21T12:48:15.244Z,6.42
2018-10-21T12:50:43.028Z,5.90
2018-10-21T12:53:10.963Z,5.80
2018-10-21T12:55:42.672Z,5.85
2018-10-21T12:58:09.900Z,6.92
2018-10-21T13:00:37.025Z,6.45
2018-10-21T13:03:04.182Z,6.72
2018-10-21T13:05:31.791Z,7.05
2018-10-21T13:07:59.011Z,5.80
2018-10-21T13:10:26.504Z,6.55
2018-10-21T13:12:53.694Z,5.42
2018-10-21T13:15:20.941Z,5.72
2018-10-21T13:17:48.218Z,4.97
2018-10-21T13:20:15.468Z,5.33
2018-10-21T13:22:42.626Z,5.55
2018-10-21T13:25:09.819Z,5.87
2018-10-21T13:27:37.037Z,6.03
2018-10-21T13:30:05.362Z,5.62
2018-10-21T13:32:32.505Z,5.85
2018-10-21T13:34:59.669Z,5.33
2018-10-21T13:37:26.879Z,5.28
2018-10-21T13:39:54.111Z,5.47
2018-10-21T13:42:21.216Z,5.42
2018-10-21T13:44:48.409Z,4.50
2018-10-21T13:47:15.577Z,4.45
2018-10-21T13:49:42.765Z,5.00
2018-10-21T13:52:10.352Z,4.53
2018-10-21T13:54:37.533Z,5.00
2018-10-21T13:57:04.844Z,4.58
2018-10-21T13:59:32.001Z,4.33
2018-10-21T14:01:59.173Z,4.95
2018-10-21T14:04:26.369Z,4.37
2018-10-21T14:06:53.612Z,3.87
2018-10-21T14:09:20.839Z,4.65
2018-10-21T14:11:48.020Z,4.70
2018-10-21T14:14:15.232Z,4.17
2018-10-21T14:16:42.512Z,3.90
2018-10-21T14:19:09.820Z,4.00
2018-10-21T14:21:37.235Z,4.22
2018-10-21T14:24:04.701Z,4.17
2018-10-21T14:26:32.130Z,4.35
2018-10-21T14:28:59.317Z,4.53
2018-10-21T14:31:26.492Z,4.70
2018-10-21T14:33:53.640Z,4.50
2018-10-21T14:36:20.817Z,4.42
2018-10-21T14:38:48.096Z,4.55
2018-10-21T14:41:15.256Z,3.60
2018-10-21T14:43:42.404Z,4.30
2018-10-21T14:46:09.647Z,4.05
2018-10-21T14:48:36.753Z,3.75
2018-10-21T14:51:04.035Z,4.05
2018-10-21T14:53:31.219Z,3.70
2018-10-21T14:55:58.470Z,4.67
2018-10-21T14:58:25.624Z,3.90
2018-10-21T15:00:52.807Z,4.10
2018-10-21T15:03:19.957Z,3.83
2018-10-21T15:05:47.109Z,4.55
2018-10-21T15:08:14.328Z,4.15
2018-10-21T15:10:41.496Z,3.67
2018-10-21T15:13:08.643Z,4.12
2018-10-21T15:15:35.971Z,4.45
2018-10-21T15:18:03.128Z,4.00
2018-10-21T15:20:30.273Z,3.95
2018-10-21T15:22:57.535Z,3.52
2018-10-21T15:25:24.621Z,4.03
2018-10-21T15:27:51.792Z,6.10
2018-10-21T15:30:18.953Z,5.00
2018-10-21T15:32:46.129Z,4.60
2018-10-21T15:35:13.308Z,3.55
2018-10-21T15:37:40.461Z,4.08
2018-10-21T15:40:08.657Z,3.55
2018-10-21T15:42:35.854Z,3.42
2018-10-21T15:45:03.124Z,3.65
2018-10-21T15:47:30.296Z,3.25
2018-10-21T15:49:57.505Z,3.65
2018-10-21T15:52:24.819Z,3.20
2018-10-21T15:54:51.861Z,4.15
2018-10-21T15:57:19.016Z,5.10
2018-10-21T15:59:46.278Z,4.60
2018-10-21T16:02:13.608Z,3.40
2018-10-21T16:04:40.677Z,3.95
2018-10-21T16:07:08.032Z,4.47
2018-10-21T16:09:35.266Z,3.50
2018-10-21T16:12:02.490Z,4.40
2018-10-21T16:14:29.695Z,3.50
2018-10-21T16:16:56.825Z,3.90
2018-10-21T16:19:24.021Z,6.43
2018-10-21T16:21:51.333Z,3.97
2018-10-21T16:24:18.508Z,3.60
2018-10-21T16:26:45.674Z,4.10
2018-10-21T16:29:12.845Z,4.30
2018-10-21T16:31:40.047Z,3.80
2018-10-21T16:34:07.311Z,4.57
2018-10-21T16:36:34.360Z,4.63
2018-10-21T16:39:01.538Z,4.93
2018-10-21T16:41:31.807Z,6.77
2018-10-21T16:43:59.092Z,6.77
2018-10-21T16:46:26.254Z,6.33
2018-10-21T16:48:53.561Z,5.93
2018-10-21T16:51:20.769Z,5.17
2018-10-21T16:53:47.907Z,5.17
2018-10-21T16:56:15.074Z,11.80
2018-10-21T16:58:42.305Z,4.87
2018-10-21T17:01:09.624Z,5.03
2018-10-21T17:03:36.722Z,4.70
2018-10-21T17:06:04.119Z,5.83
2018-10-21T17:08:31.293Z,5.43
2018-10-21T17:10:58.641Z,5.93
2018-10-21T17:13:25.669Z,6.33
2018-10-21T17:15:52.844Z,5.97
2018-10-21T17:18:20.019Z,6.23
2018-10-21T17:20:47.196Z,6.50
2018-10-21T17:23:14.398Z,5.90
2018-10-21T17:25:41.576Z,5.43
2018-10-21T17:28:08.794Z,6.07
2018-10-21T17:30:36.033Z,5.47
2018-10-21T17:33:03.277Z,5.40
2018-10-21T17:35:30.463Z,5.03
2018-10-21T17:37:57.630Z,5.30
2018-10-21T17:40:24.862Z,5.60
2018-10-21T17:42:52.028Z,5.33
2018-10-21T17:45:19.196Z,5.90
2018-10-21T17:47:46.376Z,5.73
2018-10-21T17:50:14.344Z,6.90
2018-10-21T17:52:41.950Z,7.00
2018-10-21T17:55:09.187Z,8.80
2018-10-21T17:57:36.316Z,9.60
2018-10-21T18:00:03.782Z,9.30
2018-10-21T18:02:31.009Z,8.40
2018-10-21T18:04:58.652Z,13.70
2018-10-21T18:07:25.845Z,12.17
2018-10-21T18:09:53.033Z,9.10
2018-10-21T18:12:20.233Z,9.47
2018-10-21T18:14:47.938Z,10.63
2018-10-21T18:17:15.046Z,11.00
2018-10-21T18:19:42.357Z,11.10
2018-10-21T18:22:09.554Z,11.40
2018-10-21T18:24:36.728Z,10.57
2018-10-21T18:27:03.980Z,7.90
2018-10-21T18:29:31.178Z,7.07
2018-10-21T18:31:58.356Z,9.37
2018-10-21T18:34:25.533Z,9.23
2018-10-21T18:36:52.698Z,10.30
2018-10-21T18:39:19.877Z,8.00
2018-10-21T18:41:47.049Z,10.77
2018-10-21T18:44:14.229Z,9.90
2018-10-21T18:46:41.409Z,8.33
2018-10-21T18:49:08.662Z,8.90
2018-10-21T18:51:35.829Z,10.47
2018-10-21T18:54:03.048Z,10.50
2018-10-21T18:56:30.221Z,9.13
2018-10-21T18:58:57.391Z,7.90
2018-10-21T19:01:24.586Z,8.60
2018-10-21T19:03:51.749Z,8.67
2018-10-21T19:06:18.934Z,8.60
2018-10-21T19:08:46.097Z,8.50
2018-10-21T19:11:13.282Z,10.47
2018-10-21T19:13:40.484Z,10.23
2018-10-21T19:16:07.671Z,8.47
2018-10-21T19:18:34.837Z,10.33
2018-10-21T19:21:02.008Z,12.10
2018-10-21T19:23:29.188Z,12.07
2018-10-21T19:25:56.365Z,14.67
2018-10-21T19:28:23.573Z,11.80
2018-10-21T19:30:50.733Z,13.17
2018-10-21T19:33:17.928Z,9.87
2018-10-21T19:35:45.105Z,8.77
2018-10-21T19:38:12.249Z,9.60
2018-10-21T19:40:39.408Z,10.03
2018-10-21T19:43:06.634Z,9.53
2018-10-21T19:45:33.761Z,9.90
2018-10-21T19:48:00.966Z,9.90
2018-10-21T19:50:28.129Z,9.67
2018-10-21T19:52:55.388Z,9.60
2018-10-21T19:55:22.549Z,9.10
2018-10-21T19:57:49.745Z,9.57
2018-10-21T20:00:16.993Z,10.63
2018-10-21T20:02:44.601Z,12.20
2018-10-21T20:05:11.812Z,9.40
2018-10-21T20:07:39.046Z,9.30
2018-10-21T20:10:07.140Z,8.80
2018-10-21T20:12:34.271Z,10.50
2018-10-21T20:15:01.445Z,10.70
2018-10-21T20:17:28.596Z,11.63
2018-10-21T20:19:55.870Z,10.10
2018-10-21T20:22:23.077Z,10.47
2018-10-21T20:24:50.236Z,10.17
2018-10-21T20:27:18.033Z,9.40
2018-10-21T20:29:45.892Z,10.33
2018-10-21T20:32:13.111Z,10.77
2018-10-21T20:34:40.303Z,11.40
2018-10-21T20:37:07.502Z,9.90
2018-10-21T20:39:34.677Z,10.67
2018-10-21T20:42:01.924Z,11.57
2018-10-21T20:44:29.085Z,12.63
2018-10-21T20:46:56.266Z,11.00
2018-10-21T20:49:23.481Z,12.10
2018-10-21T20:51:50.661Z,12.43
2018-10-21T20:54:17.859Z,10.13
2018-10-21T20:56:45.332Z,9.77
2018-10-21T20:59:12.707Z,10.73
2018-10-21T21:01:39.921Z,10.33
2018-10-21T21:04:07.434Z,9.53
2018-10-21T21:06:34.841Z,9.73
2018-10-21T21:09:02.050Z,10.80
2018-10-21T21:11:29.656Z,9.93
2018-10-21T21:13:56.971Z,9.70
2018-10-21T21:16:24.125Z,11.87
2018-10-21T21:18:51.689Z,11.50
2018-10-21T21:21:19.316Z,11.27
2018-10-21T21:23:46.510Z,12.53
2018-10-21T21:26:14.109Z,12.73
2018-10-21T21:28:41.787Z,13.43
2018-10-21T21:31:09.129Z,12.77
2018-10-21T21:33:36.321Z,12.13
2018-10-21T21:36:03.526Z,11.43
2018-10-21T21:38:30.673Z,11.80
2018-10-21T21:40:58.042Z,11.77
2018-10-21T21:43:25.225Z,12.83
2018-10-21T21:45:52.449Z,11.20
2018-10-21T21:48:19.715Z,10.47
2018-10-21T21:50:46.804Z,9.37
2018-10-21T21:53:13.937Z,9.53
2018-10-21T21:55:41.418Z,11.27
2018-10-21T21:58:08.618Z,11.77
2018-10-21T22:00:35.797Z,12.13
2018-10-21T22:03:03.204Z,10.87
2018-10-21T22:05:30.771Z,11.40
2018-10-21T22:07:57.920Z,10.90
2018-10-21T22:10:25.093Z,10.47
2018-10-21T22:12:52.265Z,10.47
2018-10-21T22:15:19.484Z,10.27
2018-10-21T22:17:46.753Z,9.60
2018-10-21T22:20:14.645Z,9.77
2018-10-21T22:22:42.144Z,10.53
2018-10-21T22:25:09.698Z,9.47
2018-10-21T22:27:37.312Z,9.37
2018-10-21T22:30:06.297Z,9.23
2018-10-21T22:32:33.494Z,10.00
2018-10-21T22:35:00.649Z,9.60
2018-10-21T22:37:27.885Z,9.97
2018-10-21T22:39:55.092Z,8.97
2018-10-21T22:42:22.289Z,9.47
2018-10-21T22:44:49.464Z,9.20
2018-10-21T22:47:16.669Z,9.50
2018-10-21T22:49:43.829Z,9.73
2018-10-21T22:52:11.056Z,10.00
2018-10-21T22:54:38.207Z,10.43
2018-10-21T22:57:11.081Z,8.63
2018-10-21T22:59:38.253Z,10.67
2018-10-21T23:02:05.434Z,10.20
2018-10-21T23:04:32.610Z,10.80
2018-10-21T23:06:59.764Z,11.07
2018-10-21T23:09:26.929Z,11.37
2018-10-21T23:11:54.131Z,10.47
2018-10-21T23:14:21.292Z,11.67
2018-10-21T23:16:48.493Z,11.33
2018-10-21T23:19:21.471Z,11.80
2018-10-21T23:21:48.640Z,11.57
2018-10-21T23:24:15.892Z,11.47
2018-10-21T23:26:43.028Z,10.07
2018-10-21T23:29:10.213Z,9.97
2018-10-21T23:31:37.408Z,10.43
2018-10-21T23:34:04.964Z,10.23
2018-10-21T23:36:32.132Z,10.90
2018-10-21T23:38:59.306Z,9.87
2018-10-21T23:41:26.488Z,11.10
2018-10-21T23:43:53.699Z,10.27
2018-10-21T23:46:20.884Z,9.70
2018-10-21T23:48:48.058Z,9.63
2018-10-21T23:51:15.241Z,9.70
2018-10-21T23:53:42.445Z,10.53
2018-10-21T23:56:09.627Z,10.27
2018-10-21T23:58:36.792Z,10.37
